AirNav   Pilot Hours Calculator
 
 999 users online  

NH93 Sean Heliport
Pelham, New Hampshire, USA

GOING TO PELHAM?


FAA INFORMATION EFFECTIVE 02 JANUARY 2020

Location

FAA Identifier: NH93
Lat/Long: 42-45-46.3000N 071-18-54.9800W
42-45.771667N 071-18.916333W
42.7628611,-71.3152722
(estimated)
Elevation: 150 ft. / 46 m (estimated)
Time zone: UTC -5 (UTC -4 during Daylight Saving Time)
Zip code: 03076

Heliport Operations

Heliport use: Private use. Permission required prior to landing
Activation date: 02/2003
Control tower: no
ARTCC: BOSTON CENTER
FSS: BANGOR FLIGHT SERVICE STATION
Attendance: UNATNDD
Segmented circle: no

Heliport Communications

WX AWOS-3PT at ASH (9 nm W): 125.1 (603-578-0473)
WX ASOS at LWM (9 nm E): PHONE 978-687-8017
WX ASOS at MHT (11 nm NW): 119.55 (603-621-1766)
WX ASOS at BED (18 nm S): 124.6 (781-274-9733)

Nearby radio navigation aids

VOR radial/distance  VOR name  Freq  Var
MHTr174/6.8MANCHESTER VOR/DME114.4015W
LWMr293/9.8LAWRENCE VOR/DME112.5015W
BOSr345/28.3BOSTON VOR/DME112.7016W
PSMr244/28.7PEASE VOR/DME116.5016W
CONr172/29.7CONCORD VOR/DME112.9015W
GDMr082/35.3GARDNER VOR/DME110.6014W

 
NDB name  Hdg/Dist  Freq  Var  ID
FITZY138/11.220915WMJ -- .---
ROLLINS234/34.826016WESG . ... --.

Heliport Services

Runway Information

Helipad H1

Dimensions: 500 x 500 ft. / 152 x 152 m
Surface: asphalt
Traffic pattern: leftleft

Heliport Ownership and Management from official FAA records

Ownership: Privately-owned
Owner: SEAN BROWDER
10 WILLIAM DR
PELHAM, NH 03076
Phone 603-635-1532
Manager: SEAN BROWDER
10 WILLIAM DR
PELHAM, NH 03076
Phone 603-635-1532

Additional Remarks

FOR CD CTC BOSTON APCH AT 603-594-5551.

Instrument Procedures

There are no published instrument procedures at NH93.

Some nearby airports with instrument procedures:

KASH - Boire Field Airport (9 nm W)
KLWM - Lawrence Municipal Airport (9 nm E)
KMHT - Manchester Airport (11 nm NW)
KBED - Laurence G Hanscom Field Airport (18 nm S)
6B6 - Minute Man Air Field (20 nm SW)
 
Loc | Ops | Rwys | IFR | FBO | Links
Com | Nav | Svcs | Stats | Notes
Area around NH93 (Sean Heliport)
 
Road maps at: MapQuest Bing Google
 
Aerial photo
No photo
 
Sectional chart

 
Airport distance calculator
Flying to Sean Heliport? Find the distance to fly.

From to NH93

Sunrise and sunset
Times for 19-Jan-2020
 Local
(UTC-5)
 Zulu
(UTC)
Morning civil twilight06:4111:41
Sunrise07:1212:12
Sunset16:4021:40
Evening civil twilight17:1122:11

Current date and time
Zulu (UTC)  19-Jan-2020 14:10:12
Local (UTC-5)  19-Jan-2020 09:10:12
 
METAR
KLWM 
8nm E 
191354Z 21005KT 10SM CLR M07/M09 A2962 RMK AO2 SLP033 T10721089
KASH 
9nm W 
191356Z 00000KT 10SM FEW065 M06/M07 A2962 RMK AO2 SLP038 T10611067
KMHT 
11nm NW 
191353Z 00000KT 10SM FEW070 M07/M09 A2959 RMK AO2 SLP042 T10721094
KBED 
18nm S 
191351Z 00000KT 7SM FEW009 M07/M09 A2961 RMK AO2 SLP043 T10671089
TAF
KMHT 
11nm NW 
191123Z 1912/2012 31006KT P6SM BKN060 FM191600 31009G16KT P6SM BKN050 FM192200 33008KT P6SM SCT050
KBED 
18nm S 
191131Z 1912/2012 24006KT P6SM BKN008 FM191300 26005KT P6SM BKN025 FM191400 26007KT P6SM SCT045 FM191600 27010G23KT P6SM SCT050 FM200000 29010G18KT P6SM SCT200 FM200200 31009KT P6SM SCT150
NOTAMs
Click for the latest NOTAMs
NOTAMs are issued by the DoD/FAA and will open in a separate window not controlled by AirNav.

 

 
 

Would you like to see your business listed on this page?

 If your business provides an interesting product or service to pilots, flight crews, aircraft, or users of the Sean Heliport, you should consider listing it here.  To start the listing process, click on the button below
 
Add a business
 

Other Pages about Sean Heliport

Update a link
 
Copyright © AirNav, LLC. All rights reserved. Privacy Policy  Contact